METAR Data
IDs: Format: Raw Decoded Include TAF

Data at: 0254 UTC 25 Jan 2020

METAR for:KCBF (Council Bluffs Muni, IA, US)
Text:KCBF 250235Z AUTO 32011KT 6SM BR OVC008 M02/M02 A3003 RMK AO2
Temperature: -2.0°C ( 28°F)
Dewpoint: -2.0°C ( 28°F) [RH = 100%]
Pressure (altimeter):30.03 inches Hg (1017.0 mb)
Winds:from the NW (320 degrees) at 13 MPH (11 knots; 5.7 m/s)
Visibility: 6 sm ( 10 km)
Ceiling:800 feet AGL
Clouds: overcast cloud deck at 800 feet AGL
Weather:BR (mist)
QC Flag:automated observation with no human augmentation